createdAt,value
2023-12-26T00:00:01.915Z,66.2
2023-12-26T00:01:01.958Z,66.8
2023-12-26T00:02:01.913Z,66.6
2023-12-26T00:03:02.270Z,66.3
2023-12-26T00:04:01.961Z,66.5
2023-12-26T00:05:02.066Z,65.7
2023-12-26T00:06:01.982Z,65.6
2023-12-26T00:07:01.928Z,67.6
2023-12-26T00:08:01.893Z,68.7
2023-12-26T00:09:01.945Z,69.5
2023-12-26T00:10:01.928Z,70.1
2023-12-26T00:11:01.922Z,70.7
2023-12-26T00:12:02.022Z,71
2023-12-26T00:13:01.906Z,71.7
2023-12-26T00:14:01.905Z,72.5
2023-12-26T00:15:01.957Z,73
2023-12-26T00:16:01.922Z,73.2
2023-12-26T00:17:01.951Z,74.2
2023-12-26T00:18:02.019Z,73.7
2023-12-26T00:19:02.093Z,70.9
2023-12-26T00:20:01.925Z,73.2
2023-12-26T00:21:01.991Z,73.6
2023-12-26T00:22:01.893Z,72.1
2023-12-26T00:23:01.941Z,72.6
2023-12-26T00:24:01.956Z,72.9
2023-12-26T00:25:01.908Z,73
2023-12-26T00:26:01.919Z,72.3
2023-12-26T00:27:01.966Z,72.2
2023-12-26T00:28:01.918Z,72.2
2023-12-26T00:29:01.906Z,71.5
2023-12-26T00:30:01.953Z,70.7
2023-12-26T00:31:01.944Z,71.4
2023-12-26T00:32:01.892Z,70.8
2023-12-26T00:33:02.120Z,70.9
2023-12-26T00:34:02.130Z,70.8
2023-12-26T00:35:01.856Z,70.7
2023-12-26T00:36:01.993Z,70.9
2023-12-26T00:37:01.938Z,70.5
2023-12-26T00:38:01.887Z,71.7
2023-12-26T00:39:01.958Z,72.6
2023-12-26T00:40:05.100Z,72.3
2023-12-26T00:41:01.933Z,70.8
2023-12-26T00:42:01.992Z,71.2
2023-12-26T00:43:01.931Z,70.9
2023-12-26T00:44:01.937Z,71.4
2023-12-26T00:45:01.902Z,71.8
2023-12-26T00:46:01.900Z,70.2
2023-12-26T00:47:01.901Z,70.7
2023-12-26T00:48:02.100Z,70.3
2023-12-26T00:49:02.038Z,70
2023-12-26T00:50:01.933Z,71.5
2023-12-26T00:51:01.952Z,71.1
2023-12-26T00:52:01.931Z,71.1
2023-12-26T00:53:01.917Z,70.8
2023-12-26T00:54:01.883Z,70.2
2023-12-26T00:55:01.932Z,68.6
2023-12-26T00:56:01.949Z,69.1
2023-12-26T00:57:02.042Z,68.7
2023-12-26T00:58:01.932Z,66.7
2023-12-26T00:59:01.916Z,64.8
2023-12-26T01:00:01.989Z,64.1
2023-12-26T01:01:01.965Z,62.5
2023-12-26T01:02:01.932Z,62.4
2023-12-26T01:03:01.964Z,62.3
2023-12-26T01:04:01.936Z,61.9
2023-12-26T01:05:01.952Z,61.5
2023-12-26T01:06:01.965Z,61.3
2023-12-26T01:07:01.937Z,61.4
2023-12-26T01:08:01.925Z,61.9
2023-12-26T01:09:02.101Z,61.6
2023-12-26T01:10:01.956Z,61.7
2023-12-26T01:11:01.925Z,62.4
2023-12-26T01:12:01.977Z,64.4
2023-12-26T01:13:01.911Z,65.8
2023-12-26T01:14:01.930Z,65.7
2023-12-26T01:15:02.048Z,65.1
2023-12-26T01:16:01.928Z,65
2023-12-26T01:17:01.932Z,65.2
2023-12-26T01:18:02.128Z,65.7
2023-12-26T01:19:02.116Z,65.5
2023-12-26T01:20:01.929Z,65.5
2023-12-26T01:21:01.956Z,65.6
2023-12-26T01:22:01.893Z,65.6
2023-12-26T01:23:01.896Z,65.2
2023-12-26T01:24:02.012Z,65.5
2023-12-26T01:25:01.847Z,65.9
2023-12-26T01:26:01.943Z,64.8
2023-12-26T01:27:01.962Z,64.8
2023-12-26T01:28:01.932Z,64.3
2023-12-26T01:29:01.911Z,64.3
2023-12-26T01:30:02.059Z,63.9
2023-12-26T01:31:02.003Z,64.2
2023-12-26T01:32:01.886Z,64
2023-12-26T01:33:02.206Z,64.3
2023-12-26T01:34:01.990Z,63.8
2023-12-26T01:35:01.917Z,63.6
2023-12-26T01:36:01.920Z,63.8
2023-12-26T01:37:01.891Z,63.6
2023-12-26T01:38:01.910Z,64.1
2023-12-26T01:39:01.930Z,64.2
2023-12-26T01:40:01.925Z,63.6
2023-12-26T01:41:01.910Z,64
2023-12-26T01:42:02.023Z,63.7
2023-12-26T01:43:01.917Z,61.5
2023-12-26T01:44:01.914Z,62.6
2023-12-26T01:45:02.082Z,63.9
2023-12-26T01:46:01.944Z,62.6
2023-12-26T01:47:01.948Z,62.5
2023-12-26T01:48:02.104Z,60.2
2023-12-26T01:49:02.134Z,59.3
2023-12-26T01:50:01.958Z,60.2
2023-12-26T01:51:02.150Z,61
2023-12-26T01:52:01.974Z,61
2023-12-26T01:53:01.915Z,60.5
2023-12-26T01:54:01.966Z,60.2
2023-12-26T01:55:01.929Z,58.8
2023-12-26T01:56:01.952Z,59.5
2023-12-26T01:57:02.005Z,59.2
2023-12-26T01:58:01.931Z,59.2
2023-12-26T01:59:01.884Z,58.9
2023-12-26T02:00:01.963Z,58.4
2023-12-26T02:01:01.963Z,58.6
2023-12-26T02:02:01.924Z,58.4
2023-12-26T02:03:01.933Z,57.3
2023-12-26T02:04:01.945Z,58.7
2023-12-26T02:05:01.978Z,58.4
2023-12-26T02:06:01.964Z,59.1
2023-12-26T02:07:01.933Z,59.9
2023-12-26T02:08:01.946Z,60.2
2023-12-26T02:09:01.934Z,61.4
2023-12-26T02:10:01.957Z,63.1
2023-12-26T02:11:01.934Z,62.2
2023-12-26T02:12:01.935Z,62
2023-12-26T02:13:01.894Z,60.8
2023-12-26T02:14:01.901Z,60.7
2023-12-26T02:15:01.985Z,60.3
2023-12-26T02:16:01.914Z,62.5
2023-12-26T02:17:01.907Z,64.4
2023-12-26T02:18:02.103Z,65.7
2023-12-26T02:19:02.020Z,66.2
2023-12-26T02:20:01.940Z,64.9
2023-12-26T02:21:01.936Z,67.4
2023-12-26T02:22:01.910Z,65.9
2023-12-26T02:23:04.503Z,64.6
2023-12-26T02:24:01.978Z,63.1
2023-12-26T02:25:01.940Z,62.4
2023-12-26T02:26:01.931Z,62
2023-12-26T02:27:01.985Z,62.9
2023-12-26T02:28:01.902Z,62.8
2023-12-26T02:29:01.888Z,61.8
2023-12-26T02:30:01.949Z,61.9
2023-12-26T02:31:01.958Z,62.8
2023-12-26T02:32:01.956Z,62
2023-12-26T02:33:02.378Z,61.4
2023-12-26T02:34:02.114Z,60.1
2023-12-26T02:35:02.313Z,60.9
2023-12-26T02:36:01.995Z,59.5
2023-12-26T02:37:01.919Z,58.6
2023-12-26T02:38:01.903Z,59.1
2023-12-26T02:39:01.976Z,58.4
2023-12-26T02:40:01.922Z,58.4
2023-12-26T02:41:01.927Z,59
2023-12-26T02:42:01.958Z,57.5
2023-12-26T02:43:01.923Z,56.6
2023-12-26T02:44:01.902Z,56.3
2023-12-26T02:45:01.911Z,56.4
2023-12-26T02:46:01.938Z,56.3
2023-12-26T02:47:01.899Z,56.4
2023-12-26T02:48:02.076Z,56.3
2023-12-26T02:49:01.975Z,56.1
2023-12-26T02:50:01.898Z,56
2023-12-26T02:51:01.940Z,55.8
2023-12-26T02:52:01.897Z,56.4
2023-12-26T02:53:01.903Z,55.3
2023-12-26T02:54:01.922Z,55.1
2023-12-26T02:55:01.901Z,54.7
2023-12-26T02:56:01.926Z,55.6
2023-12-26T02:57:01.894Z,56.6
2023-12-26T02:58:01.916Z,57.5
2023-12-26T02:59:01.913Z,55.6
2023-12-26T03:00:01.965Z,54.8
2023-12-26T03:01:01.967Z,56.3
2023-12-26T03:02:01.910Z,57.7
2023-12-26T03:03:02.010Z,56.9
2023-12-26T03:04:02.058Z,56.8
2023-12-26T03:05:01.966Z,57.4
2023-12-26T03:06:02.115Z,55
2023-12-26T03:07:01.921Z,53.9
2023-12-26T03:08:01.900Z,53.2
2023-12-26T03:09:01.921Z,53.4
2023-12-26T03:10:01.906Z,53.4
2023-12-26T03:11:01.918Z,53.5
2023-12-26T03:12:01.959Z,52.6
2023-12-26T03:13:01.954Z,53.1
2023-12-26T03:14:01.907Z,53.1
2023-12-26T03:15:01.955Z,54.6
2023-12-26T03:16:01.932Z,55.7
2023-12-26T03:17:01.931Z,55.8
2023-12-26T03:18:02.093Z,56.1
2023-12-26T03:19:02.015Z,56.1
2023-12-26T03:20:01.925Z,55.6
2023-12-26T03:21:02.013Z,56
2023-12-26T03:22:01.921Z,56.8
2023-12-26T03:23:01.951Z,57.5
2023-12-26T03:24:01.958Z,57.6
2023-12-26T03:25:01.943Z,55
2023-12-26T03:26:01.933Z,52.8
2023-12-26T03:27:01.988Z,51
2023-12-26T03:28:01.944Z,51.3
2023-12-26T03:29:01.914Z,51.5
2023-12-26T03:30:01.969Z,52.8
2023-12-26T03:31:01.957Z,51.9
2023-12-26T03:32:01.905Z,54
2023-12-26T03:33:02.394Z,54.7
2023-12-26T03:34:02.042Z,56.2
2023-12-26T03:35:01.909Z,57.4
2023-12-26T03:36:01.944Z,58.6
2023-12-26T03:37:01.937Z,57.9
2023-12-26T03:38:01.913Z,59.8
2023-12-26T03:39:01.905Z,58.7
2023-12-26T03:40:01.965Z,59.1
2023-12-26T03:41:01.953Z,59.3
2023-12-26T03:42:02.009Z,61
2023-12-26T03:43:01.895Z,61.6
2023-12-26T03:44:01.938Z,59.2
2023-12-26T03:45:02.004Z,62.5
2023-12-26T03:46:01.925Z,59.3
2023-12-26T03:47:01.926Z,61.9
2023-12-26T03:48:02.063Z,59.5
2023-12-26T03:49:02.070Z,61.5
2023-12-26T03:50:01.973Z,59.7
2023-12-26T03:51:01.949Z,59.1
2023-12-26T03:52:01.922Z,59.2
2023-12-26T03:53:01.918Z,58.3
2023-12-26T03:54:01.981Z,59.4
2023-12-26T03:55:01.937Z,59.2
2023-12-26T03:56:01.930Z,57.9
2023-12-26T03:57:01.967Z,57.3
2023-12-26T03:58:01.976Z,57.6
2023-12-26T03:59:01.917Z,58.7
2023-12-26T04:00:01.938Z,58.4
2023-12-26T04:01:01.941Z,59.2
2023-12-26T04:02:01.926Z,58.4
2023-12-26T04:03:02.234Z,58.2
2023-12-26T04:04:02.116Z,56.4
2023-12-26T04:05:01.961Z,57.2
2023-12-26T04:06:01.987Z,57.8
2023-12-26T04:07:01.868Z,57.7
2023-12-26T04:08:01.943Z,58.9
2023-12-26T04:09:01.954Z,59.3
2023-12-26T04:10:01.930Z,57
2023-12-26T04:11:01.908Z,56.5
2023-12-26T04:12:01.912Z,58.7
2023-12-26T04:13:01.942Z,55.4
2023-12-26T04:14:01.936Z,56.8
2023-12-26T04:15:01.964Z,55.7
2023-12-26T04:16:01.926Z,56.3
2023-12-26T04:17:01.915Z,55
2023-12-26T04:18:01.995Z,54.9
2023-12-26T04:19:02.138Z,55.1
2023-12-26T04:20:01.931Z,55.3
2023-12-26T04:21:01.906Z,55.9
2023-12-26T04:22:01.901Z,55.3
2023-12-26T04:23:01.938Z,55.1
2023-12-26T04:24:01.944Z,55.3
2023-12-26T04:25:01.907Z,54.8
2023-12-26T04:26:01.935Z,53.8
2023-12-26T04:27:01.961Z,53.2
2023-12-26T04:28:01.934Z,54.3
2023-12-26T04:29:01.948Z,56.9
2023-12-26T04:30:01.939Z,57.7
2023-12-26T04:31:01.955Z,56.2
2023-12-26T04:32:01.918Z,57.8
2023-12-26T04:33:02.261Z,58.4
2023-12-26T04:34:02.091Z,59.7
2023-12-26T04:35:01.951Z,59.8
2023-12-26T04:36:01.972Z,60.7
2023-12-26T04:37:01.908Z,61
2023-12-26T04:38:01.923Z,61.8
2023-12-26T04:39:01.949Z,61.4
2023-12-26T04:40:01.987Z,60.4
2023-12-26T04:41:01.915Z,60.3
2023-12-26T04:42:01.960Z,60.5
2023-12-26T04:43:01.918Z,60.5
2023-12-26T04:44:01.940Z,61.5
2023-12-26T04:45:01.973Z,62
2023-12-26T04:46:01.927Z,62.3
2023-12-26T04:47:01.914Z,62.6
2023-12-26T04:48:02.042Z,63.3
2023-12-26T04:49:02.056Z,63.8
2023-12-26T04:50:01.904Z,64.6
2023-12-26T04:51:01.912Z,64.8
2023-12-26T04:52:01.905Z,64.8
2023-12-26T04:53:01.909Z,64.9
2023-12-26T04:54:01.958Z,64.7
2023-12-26T04:55:01.969Z,65.6
2023-12-26T04:56:01.897Z,66.2
2023-12-26T04:57:02.014Z,67.1
2023-12-26T04:58:01.931Z,68.7
2023-12-26T04:59:01.934Z,69.4
2023-12-26T05:00:01.931Z,70.1
2023-12-26T05:01:01.947Z,70.2
2023-12-26T05:02:01.935Z,69.5
2023-12-26T05:03:02.015Z,69.4
2023-12-26T05:04:01.967Z,69
2023-12-26T05:05:01.959Z,68.7
2023-12-26T05:06:01.998Z,68.1
2023-12-26T05:07:01.892Z,68
2023-12-26T05:08:01.930Z,67.6
2023-12-26T05:09:01.884Z,66.8
2023-12-26T05:10:01.937Z,66.6
2023-12-26T05:11:01.899Z,66.9
2023-12-26T05:12:01.934Z,66.7
2023-12-26T05:13:01.895Z,66.1
2023-12-26T05:14:01.939Z,65.3
2023-12-26T05:15:02.001Z,64.7
2023-12-26T05:16:01.949Z,63.9
2023-12-26T05:17:01.925Z,64.4
2023-12-26T05:18:01.984Z,64.7
2023-12-26T05:19:01.984Z,64.9
2023-12-26T05:20:10.770Z,64.9
2023-12-26T05:21:01.909Z,64
2023-12-26T05:22:01.943Z,63.8
2023-12-26T05:23:01.906Z,63
2023-12-26T05:24:01.959Z,62.1
2023-12-26T05:25:01.931Z,62.2
2023-12-26T05:26:07.991Z,62.6
2023-12-26T05:27:01.996Z,65.9
2023-12-26T05:28:01.930Z,64.8
2023-12-26T05:29:01.933Z,65.9
2023-12-26T05:30:01.944Z,66.5
2023-12-26T05:31:01.942Z,66.3
2023-12-26T05:32:01.917Z,68.2
2023-12-26T05:33:02.502Z,69.5
2023-12-26T05:34:01.990Z,70.5
2023-12-26T05:35:01.946Z,71.1
2023-12-26T05:36:01.967Z,71.8
2023-12-26T05:37:01.922Z,71.1
2023-12-26T05:38:01.953Z,70.7
2023-12-26T05:39:01.909Z,72.6
2023-12-26T05:40:01.916Z,73.4
2023-12-26T05:41:01.914Z,73.4
2023-12-26T05:42:01.933Z,73.4
2023-12-26T05:43:02.298Z,74.2
2023-12-26T05:44:01.905Z,73.1
2023-12-26T05:45:01.984Z,73.5
2023-12-26T05:46:01.907Z,73.7
2023-12-26T05:47:01.906Z,73
2023-12-26T05:48:02.266Z,72.9
2023-12-26T05:49:02.201Z,71.6
2023-12-26T05:50:02.363Z,72.3
2023-12-26T05:51:01.973Z,71.6
2023-12-26T05:52:01.939Z,72.7
2023-12-26T05:53:01.941Z,73.5
2023-12-26T05:54:01.965Z,74.2
2023-12-26T05:55:01.928Z,72.7
2023-12-26T05:56:01.895Z,72.3
2023-12-26T05:57:01.926Z,73.1
2023-12-26T05:58:01.953Z,72.7
2023-12-26T05:59:01.930Z,71.9
2023-12-26T06:00:01.970Z,70.7
2023-12-26T06:01:02.081Z,69.6
2023-12-26T06:02:01.907Z,69.3
2023-12-26T06:03:01.921Z,68.7
2023-12-26T06:04:01.963Z,67.6
2023-12-26T06:05:01.952Z,66.8
2023-12-26T06:06:01.960Z,68.3
2023-12-26T06:07:01.920Z,69.6
2023-12-26T06:08:01.938Z,70
2023-12-26T06:09:01.965Z,68.8
2023-12-26T06:10:01.924Z,69.2
2023-12-26T06:11:01.941Z,69.7
2023-12-26T06:12:01.947Z,70
2023-12-26T06:13:01.912Z,69.8
2023-12-26T06:14:01.930Z,70.2
2023-12-26T06:15:01.985Z,70.3
2023-12-26T06:16:01.951Z,69.6
2023-12-26T06:17:01.945Z,69.5
2023-12-26T06:18:02.073Z,70.7
2023-12-26T06:19:01.993Z,71.7
2023-12-26T06:20:02.043Z,71.5
2023-12-26T06:21:01.964Z,70.9
2023-12-26T06:22:01.930Z,70.2
2023-12-26T06:23:01.911Z,71.6
2023-12-26T06:24:01.973Z,69.8
2023-12-26T06:25:01.889Z,69.8
2023-12-26T06:26:01.931Z,73.3
2023-12-26T06:27:01.959Z,71.4
2023-12-26T06:28:01.914Z,73
2023-12-26T06:29:01.906Z,73.2
2023-12-26T06:30:01.946Z,72.2
2023-12-26T06:31:01.969Z,71.9
2023-12-26T06:32:01.916Z,71.3
2023-12-26T06:33:02.401Z,71.9
2023-12-26T06:34:02.143Z,71.2
2023-12-26T06:35:03.644Z,69.4
2023-12-26T06:36:01.967Z,69.1
2023-12-26T06:37:01.997Z,68.6
2023-12-26T06:38:01.947Z,68.4
2023-12-26T06:39:02.024Z,68.2
2023-12-26T06:40:01.930Z,67.9
2023-12-26T06:41:01.918Z,68.1
2023-12-26T06:42:01.961Z,68.7
2023-12-26T06:43:01.908Z,68.1
2023-12-26T06:44:01.894Z,67.7
2023-12-26T06:45:02.023Z,66.8
2023-12-26T06:46:01.913Z,67
2023-12-26T06:47:01.931Z,66
2023-12-26T06:48:02.023Z,65.8
2023-12-26T06:49:01.989Z,66.5
2023-12-26T06:50:01.949Z,67.3
2023-12-26T06:51:01.948Z,63.1
2023-12-26T06:52:01.936Z,61.8
2023-12-26T06:53:01.927Z,61.4
2023-12-26T06:54:01.971Z,60.9
2023-12-26T06:55:01.927Z,61.7
2023-12-26T06:56:01.938Z,63.5
2023-12-26T06:57:01.961Z,64.3
2023-12-26T06:58:01.913Z,63.6
2023-12-26T06:59:01.929Z,64.8
2023-12-26T07:00:02.290Z,65.4
2023-12-26T07:01:02.008Z,66
2023-12-26T07:02:01.942Z,65.6
2023-12-26T07:03:02.603Z,64.9
2023-12-26T07:04:02.148Z,65.9
2023-12-26T07:05:02.034Z,65.7
2023-12-26T07:06:01.921Z,65.2
2023-12-26T07:07:01.928Z,65
2023-12-26T07:08:01.905Z,65.1
2023-12-26T07:09:01.962Z,64.8
2023-12-26T07:10:01.904Z,64.9
2023-12-26T07:11:01.913Z,65.7
2023-12-26T07:12:01.946Z,67.8
2023-12-26T07:13:01.879Z,69
2023-12-26T07:14:01.946Z,68
2023-12-26T07:15:01.938Z,68
2023-12-26T07:16:01.947Z,68.5
2023-12-26T07:17:01.920Z,69.2
2023-12-26T07:18:02.040Z,68.9
2023-12-26T07:19:02.094Z,69.7
2023-12-26T07:20:01.952Z,69
2023-12-26T07:21:01.936Z,68.7
2023-12-26T07:22:01.921Z,69.3
2023-12-26T07:23:01.904Z,70.4
2023-12-26T07:24:01.969Z,70.5
2023-12-26T07:25:01.928Z,70.8
2023-12-26T07:26:01.954Z,69.6
2023-12-26T07:27:01.917Z,68.2
2023-12-26T07:28:01.949Z,68.5
2023-12-26T07:29:01.920Z,70.2
2023-12-26T07:30:01.950Z,69.8
2023-12-26T07:31:01.932Z,70.4
2023-12-26T07:32:01.930Z,71.9
2023-12-26T07:33:02.504Z,72.6
2023-12-26T07:34:02.055Z,69.8
2023-12-26T07:35:01.910Z,70.6
2023-12-26T07:36:01.958Z,71.8
2023-12-26T07:37:01.912Z,72.8
2023-12-26T07:38:01.915Z,74.8
2023-12-26T07:39:01.911Z,71.9
2023-12-26T07:40:01.913Z,71.8
2023-12-26T07:41:01.897Z,71.6
2023-12-26T07:42:02.093Z,70.1
2023-12-26T07:43:01.922Z,69.5
2023-12-26T07:44:01.896Z,70.5
2023-12-26T07:45:01.956Z,71.1
2023-12-26T07:46:01.926Z,68.1
2023-12-26T07:47:01.934Z,65.7
2023-12-26T07:48:02.037Z,66.8
2023-12-26T07:49:02.175Z,66.1
2023-12-26T07:50:04.187Z,63.4
2023-12-26T07:51:01.993Z,65.3
2023-12-26T07:52:01.930Z,67.1
2023-12-26T07:53:01.932Z,68.4
2023-12-26T07:54:01.933Z,67.6
2023-12-26T07:55:01.934Z,66.4
2023-12-26T07:56:01.905Z,65.3
2023-12-26T07:57:01.962Z,64
2023-12-26T07:58:01.923Z,62.9
2023-12-26T07:59:01.951Z,65.5
2023-12-26T08:00:01.999Z,65.2
2023-12-26T08:01:01.953Z,63.7
2023-12-26T08:02:01.924Z,63.5
2023-12-26T08:03:02.416Z,61.9
2023-12-26T08:04:02.021Z,64.1
2023-12-26T08:05:02.059Z,62.9
2023-12-26T08:06:02.004Z,62
2023-12-26T08:07:01.922Z,60.7
2023-12-26T08:08:01.911Z,60.7
2023-12-26T08:09:01.909Z,60.5
2023-12-26T08:10:01.911Z,62.3
2023-12-26T08:11:01.940Z,62.2
2023-12-26T08:12:01.975Z,59.1
2023-12-26T08:13:01.915Z,59.3
2023-12-26T08:14:01.940Z,60
2023-12-26T08:15:02.056Z,60.8
2023-12-26T08:16:01.918Z,61.8
2023-12-26T08:17:01.937Z,62.2
2023-12-26T08:18:02.067Z,62.6
2023-12-26T08:19:02.155Z,63.8
2023-12-26T08:20:01.909Z,64.5
2023-12-26T08:21:01.940Z,63.9
2023-12-26T08:22:01.933Z,65.3
2023-12-26T08:23:01.936Z,62.9
2023-12-26T08:24:01.951Z,63.6
2023-12-26T08:25:01.921Z,63.4
2023-12-26T08:26:01.891Z,62.5
2023-12-26T08:27:01.955Z,62.6
2023-12-26T08:28:01.892Z,61.7
2023-12-26T08:29:01.912Z,62.8
2023-12-26T08:30:01.999Z,63.2
2023-12-26T08:31:01.964Z,63.7
2023-12-26T08:32:01.876Z,62.7
2023-12-26T08:33:02.404Z,63.8
2023-12-26T08:34:02.024Z,61.7
2023-12-26T08:35:01.889Z,63.1
2023-12-26T08:36:01.916Z,62.4
2023-12-26T08:37:01.936Z,62.4
2023-12-26T08:38:01.912Z,61.8
2023-12-26T08:39:01.945Z,62.9
2023-12-26T08:40:01.900Z,62.4
2023-12-26T08:41:01.953Z,62
2023-12-26T08:42:01.939Z,60.7
2023-12-26T08:43:01.988Z,59.5
2023-12-26T08:44:01.936Z,60.3
2023-12-26T08:45:02.062Z,61.6
2023-12-26T08:46:01.918Z,61.6
2023-12-26T08:47:01.905Z,61.9
2023-12-26T08:48:02.218Z,62.6
2023-12-26T08:49:02.133Z,64.1
2023-12-26T08:50:01.936Z,63.8
2023-12-26T08:51:01.941Z,63.2
2023-12-26T08:52:01.935Z,64.5
2023-12-26T08:53:01.900Z,64.5
2023-12-26T08:54:01.933Z,65.6
2023-12-26T08:55:01.932Z,67.7
2023-12-26T08:56:01.930Z,65.4
2023-12-26T08:57:01.986Z,66.4
2023-12-26T08:58:01.911Z,67.3
2023-12-26T08:59:01.934Z,69.3
2023-12-26T09:00:02.108Z,69.3
2023-12-26T09:01:02.147Z,69
2023-12-26T09:02:01.924Z,68
2023-12-26T09:04:02.066Z,69.4
2023-12-26T09:05:01.928Z,68.8
2023-12-26T09:06:02.020Z,69.6
2023-12-26T09:07:02.089Z,69.8
2023-12-26T09:08:01.924Z,70.3
2023-12-26T09:09:01.961Z,71.9
2023-12-26T09:10:01.903Z,71.4
2023-12-26T09:11:04.072Z,71.7
2023-12-26T09:12:01.961Z,72.9
2023-12-26T09:13:01.893Z,74.6
2023-12-26T09:14:01.923Z,67.7
2023-12-26T09:15:01.921Z,68.8
2023-12-26T09:16:01.913Z,70.5
2023-12-26T09:17:01.941Z,70.6
2023-12-26T09:18:02.090Z,71.9
2023-12-26T09:19:02.170Z,70.5
2023-12-26T09:20:01.922Z,69.7
2023-12-26T09:21:01.946Z,69.4
2023-12-26T09:22:01.931Z,68
2023-12-26T09:23:01.893Z,65.4
2023-12-26T09:24:01.959Z,64.3
2023-12-26T09:25:01.944Z,65.2
2023-12-26T09:26:01.924Z,63
2023-12-26T09:27:01.909Z,63.9
2023-12-26T09:28:01.904Z,63.4
2023-12-26T09:29:01.900Z,63.3
2023-12-26T09:30:01.979Z,64.1
2023-12-26T09:31:01.996Z,64.4
2023-12-26T09:32:01.912Z,63.4
2023-12-26T09:33:02.293Z,63.3
2023-12-26T09:34:01.985Z,63.2
2023-12-26T09:35:01.933Z,64.6
2023-12-26T09:36:01.936Z,61.5
2023-12-26T09:37:01.932Z,59.3
2023-12-26T09:38:01.936Z,57
2023-12-26T09:39:02.010Z,58.5
2023-12-26T09:40:01.919Z,60.6
2023-12-26T09:41:01.924Z,60
2023-12-26T09:42:03.330Z,59.2
2023-12-26T09:43:01.938Z,59.2
2023-12-26T09:44:01.876Z,56.7
2023-12-26T09:45:02.005Z,56.4
2023-12-26T09:46:01.904Z,58.3
2023-12-26T09:47:01.881Z,56.8
2023-12-26T09:48:02.014Z,56.8
2023-12-26T09:49:15.097Z,55.6
2023-12-26T09:50:02.184Z,56.6
2023-12-26T09:51:02.018Z,55.1
2023-12-26T09:52:01.973Z,55.9
2023-12-26T09:53:01.908Z,56.9
2023-12-26T09:54:01.967Z,57.1
2023-12-26T09:55:01.903Z,57
2023-12-26T09:56:01.920Z,58.7
2023-12-26T09:57:01.939Z,57.6
2023-12-26T09:58:01.914Z,57
2023-12-26T09:59:01.904Z,56.2
2023-12-26T10:00:01.923Z,57.4
2023-12-26T10:01:01.939Z,55
2023-12-26T10:02:01.910Z,51.8
2023-12-26T10:03:02.328Z,52.4
2023-12-26T10:04:01.915Z,52.6
2023-12-26T10:05:01.972Z,51.2
2023-12-26T10:06:01.931Z,53.4
2023-12-26T10:07:01.905Z,55.7
2023-12-26T10:08:01.913Z,54.9
2023-12-26T10:09:02.125Z,53.2
2023-12-26T10:10:01.993Z,53.9
2023-12-26T10:11:01.922Z,52.3
2023-12-26T10:12:02.006Z,53.7
2023-12-26T10:13:01.932Z,51.5
2023-12-26T10:14:01.935Z,50.7
2023-12-26T10:15:02.088Z,50.9
2023-12-26T10:16:01.920Z,50.3
2023-12-26T10:17:01.925Z,50.2
2023-12-26T10:18:01.993Z,50
2023-12-26T10:19:02.158Z,49.2
2023-12-26T10:20:02.004Z,53.4
2023-12-26T10:21:01.898Z,53.5
2023-12-26T10:22:01.890Z,50.8
2023-12-26T10:23:01.901Z,51
2023-12-26T10:24:01.930Z,52.3
2023-12-26T10:25:01.963Z,53.2
2023-12-26T10:26:01.924Z,49.7
2023-12-26T10:27:01.984Z,52.6
2023-12-26T10:28:01.922Z,50.9
2023-12-26T10:29:01.901Z,50.5
2023-12-26T10:30:01.947Z,51
2023-12-26T10:31:02.004Z,50
2023-12-26T10:32:01.911Z,50.7
2023-12-26T10:33:02.633Z,51
2023-12-26T10:34:01.994Z,49.2
2023-12-26T10:35:01.918Z,49.5
2023-12-26T10:36:01.982Z,48.4
2023-12-26T10:37:01.940Z,48.2
2023-12-26T10:38:01.905Z,50.6
2023-12-26T10:39:01.956Z,51
2023-12-26T10:40:01.914Z,51.8
2023-12-26T10:41:01.901Z,52.7
2023-12-26T10:42:01.924Z,54.2
2023-12-26T10:43:02.383Z,56
2023-12-26T10:44:01.877Z,53.9
2023-12-26T10:45:01.946Z,52.9
2023-12-26T10:46:01.913Z,50.6
2023-12-26T10:47:01.942Z,51.7
2023-12-26T10:48:02.073Z,53.9
2023-12-26T10:49:02.045Z,51.5
2023-12-26T10:50:02.021Z,51.2
2023-12-26T10:51:02.005Z,48.1
2023-12-26T10:52:01.958Z,50.4
2023-12-26T10:53:01.917Z,49.7
2023-12-26T10:54:01.945Z,50
2023-12-26T10:55:06.109Z,50.6
2023-12-26T10:56:01.835Z,50.5
2023-12-26T10:57:01.920Z,51.4
2023-12-26T10:58:01.928Z,53
2023-12-26T10:59:01.888Z,53.6
2023-12-26T11:00:01.984Z,55.8
2023-12-26T11:01:01.994Z,57
2023-12-26T11:02:10.563Z,60.7
2023-12-26T11:03:02.011Z,62.6
2023-12-26T11:04:01.980Z,62.8
2023-12-26T11:05:01.957Z,58.6
2023-12-26T11:06:01.942Z,59.4
2023-12-26T11:07:01.917Z,60
2023-12-26T11:08:01.928Z,60.4
2023-12-26T11:09:01.938Z,61.3
2023-12-26T11:10:01.925Z,59.5
2023-12-26T11:11:01.876Z,59.9
2023-12-26T11:12:02.516Z,59.5
2023-12-26T11:13:01.914Z,59.3
2023-12-26T11:14:01.923Z,60
2023-12-26T11:15:01.961Z,59.7
2023-12-26T11:16:01.905Z,61
2023-12-26T11:17:01.923Z,62.1
2023-12-26T11:18:02.073Z,62
2023-12-26T11:19:02.227Z,63.2
2023-12-26T11:20:01.963Z,62.9
2023-12-26T11:21:01.936Z,62.2
2023-12-26T11:22:01.914Z,62
2023-12-26T11:23:01.952Z,62.5
2023-12-26T11:24:01.973Z,62.3
2023-12-26T11:25:01.928Z,62.2
2023-12-26T11:26:01.915Z,63.1
2023-12-26T11:27:01.966Z,62.1
2023-12-26T11:28:01.927Z,62.1
2023-12-26T11:29:01.926Z,62.8
2023-12-26T11:30:01.998Z,62.4
2023-12-26T11:31:01.943Z,61.8
2023-12-26T11:32:01.897Z,62
2023-12-26T11:33:02.029Z,63.1
2023-12-26T11:34:02.006Z,62.7
2023-12-26T11:35:01.950Z,63.2
2023-12-26T11:36:01.960Z,63.2
2023-12-26T11:37:01.904Z,63
2023-12-26T11:38:01.929Z,63.7
2023-12-26T11:39:01.934Z,64
2023-12-26T11:40:01.914Z,63
2023-12-26T11:41:01.915Z,63.5
2023-12-26T11:42:01.957Z,63.4
2023-12-26T11:43:01.925Z,63.7
2023-12-26T11:44:01.907Z,63.4
2023-12-26T11:45:02.056Z,62.9
2023-12-26T11:46:01.904Z,63.3
2023-12-26T11:47:01.930Z,63.9
2023-12-26T11:48:02.058Z,63.8
2023-12-26T11:49:02.084Z,62.6
2023-12-26T11:50:02.093Z,62.8
2023-12-26T11:51:01.953Z,62.8
2023-12-26T11:52:01.970Z,62.9
2023-12-26T11:53:01.935Z,61.8
2023-12-26T11:54:01.905Z,61.5
2023-12-26T11:55:01.941Z,62.2
2023-12-26T11:56:01.953Z,61
2023-12-26T11:57:01.935Z,60.8
2023-12-26T11:58:01.987Z,61.6
2023-12-26T11:59:01.924Z,61.8
2023-12-26T12:00:02.024Z,60.3
2023-12-26T12:01:01.949Z,60.8
2023-12-26T12:02:01.982Z,61.3
2023-12-26T12:03:02.127Z,60.8
2023-12-26T12:04:01.989Z,60.6
2023-12-26T12:05:02.041Z,60.3
2023-12-26T12:06:02.154Z,59.8
2023-12-26T12:07:02.111Z,60.5
2023-12-26T12:08:02.065Z,60.6
2023-12-26T12:09:01.931Z,61.2
2023-12-26T12:10:01.955Z,61.2
2023-12-26T12:11:02.076Z,61.1
2023-12-26T12:12:01.939Z,61.1
2023-12-26T12:13:02.022Z,60.9
2023-12-26T12:14:01.903Z,60.4
2023-12-26T12:15:02.003Z,60.8
2023-12-26T12:16:02.146Z,60.8
2023-12-26T12:17:01.895Z,60.1
2023-12-26T12:18:02.106Z,60.8
2023-12-26T12:19:02.498Z,61
2023-12-26T12:20:01.940Z,60.3
2023-12-26T12:21:01.934Z,61.3
2023-12-26T12:22:01.926Z,60.4
2023-12-26T12:23:01.930Z,61
2023-12-26T12:24:01.952Z,61
2023-12-26T12:25:01.941Z,62
2023-12-26T12:26:01.949Z,61.9
2023-12-26T12:27:02.029Z,61.4
2023-12-26T12:28:01.947Z,62.1
2023-12-26T12:29:01.921Z,62.3
2023-12-26T12:30:02.520Z,62.1
2023-12-26T12:31:01.942Z,62.3
2023-12-26T12:32:01.910Z,63
2023-12-26T12:33:02.045Z,63.2
2023-12-26T12:34:02.414Z,64.1
2023-12-26T12:35:01.925Z,64
2023-12-26T12:36:02.021Z,64.2
2023-12-26T12:37:01.890Z,64
2023-12-26T12:38:01.910Z,63.8
2023-12-26T12:39:01.930Z,63.6
2023-12-26T12:40:01.891Z,64.1
2023-12-26T12:41:01.911Z,63.9
2023-12-26T12:42:01.961Z,63.6
2023-12-26T12:43:01.925Z,64
2023-12-26T12:44:08.713Z,64.1
2023-12-26T12:45:01.985Z,63.9
2023-12-26T12:46:01.922Z,64.1
2023-12-26T12:47:01.896Z,64.5
2023-12-26T12:48:02.000Z,64.4
2023-12-26T12:49:02.180Z,64.3
2023-12-26T12:50:02.080Z,64.4
2023-12-26T12:51:01.948Z,63.9
2023-12-26T12:52:01.935Z,63.5
2023-12-26T12:53:01.932Z,64.3
2023-12-26T12:54:01.964Z,64.2
2023-12-26T12:55:01.930Z,64.4
2023-12-26T12:56:01.934Z,64
2023-12-26T12:57:01.970Z,63.7
2023-12-26T12:58:01.901Z,62.2
2023-12-26T12:59:01.901Z,62.3
2023-12-26T13:00:01.996Z,62.4
2023-12-26T13:01:03.581Z,62.2
2023-12-26T13:02:01.916Z,61.8
2023-12-26T13:03:02.041Z,62.7
2023-12-26T13:04:01.978Z,62.6
2023-12-26T13:05:01.995Z,63.2
2023-12-26T13:06:01.961Z,63.1
2023-12-26T13:07:01.928Z,63.3
2023-12-26T13:08:01.942Z,63.6
2023-12-26T13:09:01.941Z,63.8
2023-12-26T13:10:01.914Z,63.7
2023-12-26T13:11:01.921Z,63.5
2023-12-26T13:12:01.962Z,63.3
2023-12-26T13:13:01.958Z,63.4
2023-12-26T13:14:01.934Z,64.1
2023-12-26T13:15:01.959Z,63.9
2023-12-26T13:16:01.923Z,64.8
2023-12-26T13:17:01.942Z,65.5
2023-12-26T13:18:02.085Z,65.5
2023-12-26T13:19:01.989Z,65.1
2023-12-26T13:20:01.971Z,64.4
2023-12-26T13:21:01.982Z,64.8
2023-12-26T13:22:01.967Z,65.6
2023-12-26T13:23:01.948Z,65.7
2023-12-26T13:24:01.949Z,65.8